Highspeed 5 — SYDM — position and weather

sailwx.info

Track history (hours):
 
Tides and Currents Weather Stations Pressure Air Temp Water Temp Dewpoint Dewpoint Depression Visibility Wind Speed Wind Dir Waves Ship Positions

Highspeed 5

Last reported at 2014-Jul-23 17:14 UTC. Time now 2014-Jul-23 19:45 UTC.
Position N 35°21' E 025°09'.

Length 85 m; draft 3 m.

Type: High speed craft. MMSI: 240348000.

Date/timePositionNaut miles runAvg speedWind from/ knotsBaromVisibWave heightAir tempDewpointWater temp
2014-Jul-23 17:14N 35°21' E 025°09'3235.6
2014-Jul-23 16:20N 35°51' E 024°57'2936.7
2014-Jul-23 15:33N 36°16' E 025°16'1717.1
2014-Jul-23 14:33N 36°33' E 025°17'2726.7
2014-Jul-23 13:34N 36°56' E 025°00'2524.9
2014-Jul-23 12:34N 37°18' E 025°15'2 2.3
2014-Jul-23 11:34N 37°16' E 025°14'2423.6
2014-Jul-23 10:33N 36°54' E 025°02'3724.6
2014-Jul-23 09:04N 36°23' E 025°26'917.5
2014-Jul-23 08:34N 36°16' E 025°19'5613.4
2014-Jul-23 04:22N 35°21' E 025°09'9 0.8
2014-Jul-22 16:28N 35°29' E 025°11'3639.6
2014-Jul-22 15:33N 36°05' E 025°18'2019.4
2014-Jul-22 14:33N 36°25' E 025°20'2727.6
2014-Jul-22 13:33N 36°50' E 025°07'2020.0
2014-Jul-22 12:33N 37°10' E 025°10'1414.6
2014-Jul-22 11:34N 37°23' E 025°17'2625.6
2014-Jul-22 10:33N 37°01' E 025°01'2525.1
2014-Jul-22 09:33N 36°39' E 025°16'1717.3
2014-Jul-22 08:33N 36°23' E 025°24'3837.8
2014-Jul-22 07:33N 35°46' E 025°14'2 0.2
2014-Jul-21 16:32N 35°48' E 025°13'3637.3
2014-Jul-21 15:33N 36°23' E 025°26'2726.0
2014-Jul-21 14:32N 36°49' E 025°16'1918.2
2014-Jul-21 13:30N 37°07' E 025°08'2122.8
2014-Jul-21 12:33N 37°27' E 025°18'2222.1
2014-Jul-21 11:32N 37°06' E 025°08'1211.9
2014-Jul-21 10:33N 37°06' E 025°22'3333.0
2014-Jul-21 09:34N 36°34' E 025°17'1717.3
2014-Jul-21 08:33N 36°17' E 025°20'23 1.5
2014-Jul-20 16:33N 35°53' E 025°16'3129.0
2014-Jul-20 15:29N 36°23' E 025°26'3133.8
2014-Jul-20 14:34N 36°54' E 025°17'1413.5
2014-Jul-20 13:30N 37°06' E 025°08'2223.3
2014-Jul-20 12:33N 37°27' E 025°18'1817.7
2014-Jul-20 11:33N 37°10' E 025°10'1010.5
2014-Jul-20 10:34N 37°06' E 025°22'2827.4
2014-Jul-20 09:33N 36°39' E 025°16'1717.2
2014-Jul-20 08:33N 36°23' E 025°23'3636.1
2014-Jul-20 07:33N 35°48' E 025°14'15 1.0
2014-Jul-19 16:26N 35°33' E 025°11'3539.9
2014-Jul-19 15:34N 36°07' E 025°17'2019.8
2014-Jul-19 14:33N 36°27' E 025°19'2626.4
2014-Jul-19 13:33N 36°51' E 025°05'2322.7
2014-Jul-19 12:33N 37°13' E 025°12'7 7.4
2014-Jul-19 11:33N 37°20' E 025°16'2422.6
2014-Jul-19 10:31N 37°00' E 024°60'2526.0
2014-Jul-19 09:33N 36°39' E 025°17'1616.1
2014-Jul-19 08:33N 36°23' E 025°23'3737.0
2014-Jul-19 07:33N 35°47' E 025°16'12 0.8
2014-Jul-18 16:25N 35°36' E 025°11'3439.8
2014-Jul-18 15:33N 36°09' E 025°18'2020.0
2014-Jul-18 14:33N 36°29' E 025°18'3737.1
2014-Jul-18 13:33N 37°06' E 025°22'1110.6
2014-Jul-18 12:33N 37°12' E 025°11'9 8.7
2014-Jul-18 11:33N 37°20' E 025°16'1111.5
2014-Jul-18 10:33N 37°09' E 025°19'2726.5
2014-Jul-18 09:33N 36°42' E 025°15'2020.2
2014-Jul-18 08:33N 36°23' E 025°22'3837.9
2014-Jul-18 07:33N 35°46' E 025°15'18 1.1
2014-Jul-17 15:33N 36°04' E 025°19'2121.1
2014-Jul-17 14:33N 36°25' E 025°19'2929.0
2014-Jul-17 13:33N 36°52' E 025°05'2121.4
2014-Jul-17 12:33N 37°12' E 025°12'1110.8
2014-Jul-17 11:33N 37°22' E 025°17'2625.4
2014-Jul-17 10:33N 37°00' E 025°00'2525.6
2014-Jul-17 09:34N 36°39' E 025°17'1716.9
2014-Jul-17 08:34N 36°23' E 025°23'20 1.2
2014-Jul-16 15:33N 36°03' E 025°18'2121.5
2014-Jul-16 14:33N 36°25' E 025°20'2625.8
2014-Jul-16 13:33N 36°49' E 025°08'2222.0
2014-Jul-16 12:33N 37°11' E 025°10'1312.9
2014-Jul-16 11:33N 37°23' E 025°17'2625.3
2014-Jul-16 10:32N 37°00' E 025°00'2525.4
2014-Jul-16 09:33N 36°39' E 025°16'1716.5
2014-Jul-16 08:33N 36°23' E 025°23'35 2.1
2014-Jul-15 16:05N 35°50' E 025°10'2138.7
2014-Jul-15 15:33N 36°10' E 025°18'2020.3
2014-Jul-15 14:33N 36°30' E 025°17'2625.9
2014-Jul-15 13:33N 36°53' E 025°03'1918.5
2014-Jul-15 12:33N 37°11' E 025°11'1111.3
2014-Jul-15 11:33N 37°21' E 025°16'2726.5
2014-Jul-15 10:33N 36°58' E 024°59'2727.5
2014-Jul-15 09:33N 36°36' E 025°18'1818.0
2014-Jul-15 08:33N 36°18' E 025°19'32 2.0
2014-Jul-14 16:11N 35°48' E 025°05'2438.2
2014-Jul-14 15:33N 36°10' E 025°17'2120.7
2014-Jul-14 14:34N 36°30' E 025°18'3635.8
2014-Jul-14 13:33N 37°06' E 025°22'1110.9
2014-Jul-14 12:34N 37°14' E 025°13'4 3.6
2014-Jul-14 11:34N 37°17' E 025°14'1212.3
2014-Jul-14 10:34N 37°06' E 025°22'2828.3
2014-Jul-14 09:34N 36°38' E 025°16'1918.5
2014-Jul-14 08:34N 36°20' E 025°20'  
Track history (hours):
 
Tides and Currents Weather Stations Pressure Air Temp Water Temp Dewpoint Dewpoint Depression Visibility Wind Speed Wind Dir Waves Ship Positions

Highspeed 5

Last reported at 2014-Jul-23 17:14 UTC. Time now 2014-Jul-23 19:45 UTC.
Position N 35°21' E 025°09'.

Length 85 m; draft 3 m.

Type: High speed craft. MMSI: 240348000.

Date/timePositionNaut miles runAvg speedWind from/ knotsBaromVisibWave heightAir tempDewpointWater temp
2014-Jul-23 17:14N 35°21' E 025°09'3235.6
2014-Jul-23 16:20N 35°51' E 024°57'2936.7
2014-Jul-23 15:33N 36°16' E 025°16'1717.1
2014-Jul-23 14:33N 36°33' E 025°17'2726.7
2014-Jul-23 13:34N 36°56' E 025°00'2524.9
2014-Jul-23 12:34N 37°18' E 025°15'2 2.3
2014-Jul-23 11:34N 37°16' E 025°14'2423.6
2014-Jul-23 10:33N 36°54' E 025°02'3724.6
2014-Jul-23 09:04N 36°23' E 025°26'917.5
2014-Jul-23 08:34N 36°16' E 025°19'5613.4
2014-Jul-23 04:22N 35°21' E 025°09'9 0.8
2014-Jul-22 16:28N 35°29' E 025°11'3639.6
2014-Jul-22 15:33N 36°05' E 025°18'2019.4
2014-Jul-22 14:33N 36°25' E 025°20'2727.6
2014-Jul-22 13:33N 36°50' E 025°07'2020.0
2014-Jul-22 12:33N 37°10' E 025°10'1414.6
2014-Jul-22 11:34N 37°23' E 025°17'2625.6
2014-Jul-22 10:33N 37°01' E 025°01'2525.1
2014-Jul-22 09:33N 36°39' E 025°16'1717.3
2014-Jul-22 08:33N 36°23' E 025°24'3837.8
2014-Jul-22 07:33N 35°46' E 025°14'2 0.2
2014-Jul-21 16:32N 35°48' E 025°13'3637.3
2014-Jul-21 15:33N 36°23' E 025°26'2726.0
2014-Jul-21 14:32N 36°49' E 025°16'1918.2
2014-Jul-21 13:30N 37°07' E 025°08'2122.8
2014-Jul-21 12:33N 37°27' E 025°18'2222.1
2014-Jul-21 11:32N 37°06' E 025°08'1211.9
2014-Jul-21 10:33N 37°06' E 025°22'3333.0
2014-Jul-21 09:34N 36°34' E 025°17'1717.3
2014-Jul-21 08:33N 36°17' E 025°20'23 1.5
2014-Jul-20 16:33N 35°53' E 025°16'3129.0
2014-Jul-20 15:29N 36°23' E 025°26'3133.8
2014-Jul-20 14:34N 36°54' E 025°17'1413.5
2014-Jul-20 13:30N 37°06' E 025°08'2223.3
2014-Jul-20 12:33N 37°27' E 025°18'1817.7
2014-Jul-20 11:33N 37°10' E 025°10'1010.5
2014-Jul-20 10:34N 37°06' E 025°22'2827.4
2014-Jul-20 09:33N 36°39' E 025°16'1717.2
2014-Jul-20 08:33N 36°23' E 025°23'3636.1
2014-Jul-20 07:33N 35°48' E 025°14'15 1.0
2014-Jul-19 16:26N 35°33' E 025°11'3539.9
2014-Jul-19 15:34N 36°07' E 025°17'2019.8
2014-Jul-19 14:33N 36°27' E 025°19'2626.4
2014-Jul-19 13:33N 36°51' E 025°05'2322.7
2014-Jul-19 12:33N 37°13' E 025°12'7 7.4
2014-Jul-19 11:33N 37°20' E 025°16'2422.6
2014-Jul-19 10:31N 37°00' E 024°60'2526.0
2014-Jul-19 09:33N 36°39' E 025°17'1616.1
2014-Jul-19 08:33N 36°23' E 025°23'3737.0
2014-Jul-19 07:33N 35°47' E 025°16'12 0.8
2014-Jul-18 16:25N 35°36' E 025°11'3439.8
2014-Jul-18 15:33N 36°09' E 025°18'2020.0
2014-Jul-18 14:33N 36°29' E 025°18'3737.1
2014-Jul-18 13:33N 37°06' E 025°22'1110.6
2014-Jul-18 12:33N 37°12' E 025°11'9 8.7
2014-Jul-18 11:33N 37°20' E 025°16'1111.5
2014-Jul-18 10:33N 37°09' E 025°19'2726.5
2014-Jul-18 09:33N 36°42' E 025°15'2020.2
2014-Jul-18 08:33N 36°23' E 025°22'3837.9
2014-Jul-18 07:33N 35°46' E 025°15'18 1.1
2014-Jul-17 15:33N 36°04' E 025°19'2121.1
2014-Jul-17 14:33N 36°25' E 025°19'2929.0
2014-Jul-17 13:33N 36°52' E 025°05'2121.4
2014-Jul-17 12:33N 37°12' E 025°12'1110.8
2014-Jul-17 11:33N 37°22' E 025°17'2625.4
2014-Jul-17 10:33N 37°00' E 025°00'2525.6
2014-Jul-17 09:34N 36°39' E 025°17'1716.9
2014-Jul-17 08:34N 36°23' E 025°23'20 1.2
2014-Jul-16 15:33N 36°03' E 025°18'2121.5
2014-Jul-16 14:33N 36°25' E 025°20'2625.8
2014-Jul-16 13:33N 36°49' E 025°08'2222.0
2014-Jul-16 12:33N 37°11' E 025°10'1312.9
2014-Jul-16 11:33N 37°23' E 025°17'2625.3
2014-Jul-16 10:32N 37°00' E 025°00'2525.4
2014-Jul-16 09:33N 36°39' E 025°16'1716.5
2014-Jul-16 08:33N 36°23' E 025°23'35 2.1
2014-Jul-15 16:05N 35°50' E 025°10'2138.7
2014-Jul-15 15:33N 36°10' E 025°18'2020.3
2014-Jul-15 14:33N 36°30' E 025°17'2625.9
2014-Jul-15 13:33N 36°53' E 025°03'1918.5
2014-Jul-15 12:33N 37°11' E 025°11'1111.3
2014-Jul-15 11:33N 37°21' E 025°16'2726.5
2014-Jul-15 10:33N 36°58' E 024°59'2727.5
2014-Jul-15 09:33N 36°36' E 025°18'1818.0
2014-Jul-15 08:33N 36°18' E 025°19'32 2.0
2014-Jul-14 16:11N 35°48' E 025°05'2438.2
2014-Jul-14 15:33N 36°10' E 025°17'2120.7
2014-Jul-14 14:34N 36°30' E 025°18'3635.8
2014-Jul-14 13:33N 37°06' E 025°22'1110.9
2014-Jul-14 12:34N 37°14' E 025°13'4 3.6
2014-Jul-14 11:34N 37°17' E 025°14'1212.3
2014-Jul-14 10:34N 37°06' E 025°22'2828.3
2014-Jul-14 09:34N 36°38' E 025°16'1918.5
2014-Jul-14 08:34N 36°20' E 025°20'  

Dump ship's entire track history